createdAt,value
2023-01-13T00:01:24.463Z,23.64
2023-01-13T00:03:53.955Z,23.63
2023-01-13T00:06:30.249Z,23.61
2023-01-13T00:08:59.668Z,23.61
2023-01-13T00:11:29.730Z,23.59
2023-01-13T00:13:58.973Z,23.58
2023-01-13T00:16:28.445Z,23.57
2023-01-13T00:19:00.241Z,23.56
2023-01-13T00:21:29.840Z,23.54
2023-01-13T00:23:59.172Z,23.54
2023-01-13T00:26:29.181Z,23.50
2023-01-13T00:29:01.526Z,23.50
2023-01-13T00:31:30.907Z,23.49
2023-01-13T00:34:00.580Z,23.48
2023-01-13T00:36:31.285Z,23.47
2023-01-13T00:39:00.538Z,23.44
2023-01-13T00:41:30.185Z,23.44
2023-01-13T00:43:59.519Z,23.42
2023-01-13T00:46:28.880Z,23.39
2023-01-13T00:48:59.710Z,23.37
2023-01-13T00:51:29.269Z,23.36
2023-01-13T00:53:59.586Z,23.36
2023-01-13T00:56:39.640Z,23.35
2023-01-13T00:58:59.787Z,23.33
2023-01-13T01:01:29.447Z,23.32
2023-01-13T01:03:58.935Z,23.29
2023-01-13T01:06:28.473Z,23.29
2023-01-13T01:08:57.806Z,23.30
2023-01-13T01:11:31.459Z,23.32
2023-01-13T01:14:02.153Z,23.34
2023-01-13T01:16:33.029Z,23.36
2023-01-13T01:19:02.471Z,23.38
2023-01-13T01:21:31.862Z,23.39
2023-01-13T01:24:01.824Z,23.42
2023-01-13T01:26:31.235Z,23.44
2023-01-13T01:29:00.601Z,23.46
2023-01-13T01:31:32.040Z,23.48
2023-01-13T01:34:01.686Z,23.51
2023-01-13T01:36:32.346Z,23.53
2023-01-13T01:39:01.730Z,23.56
2023-01-13T01:41:32.775Z,23.59
2023-01-13T01:44:07.679Z,23.62
2023-01-13T01:46:40.335Z,23.64
2023-01-13T01:49:27.633Z,23.66
2023-01-13T01:52:01.448Z,23.68
2023-01-13T01:54:44.273Z,23.71
2023-01-13T01:57:13.771Z,23.70
2023-01-13T01:59:43.241Z,23.68
2023-01-13T02:02:12.883Z,23.68
2023-01-13T02:04:42.850Z,23.67
2023-01-13T02:07:12.151Z,23.66
2023-01-13T02:09:41.925Z,23.66
2023-01-13T02:12:28.959Z,23.64
2023-01-13T02:15:05.629Z,23.63
2023-01-13T02:17:39.183Z,23.62
2023-01-13T02:20:28.928Z,23.61
2023-01-13T02:23:09.298Z,23.61
2023-01-13T02:25:51.005Z,23.60
2023-01-13T02:28:25.405Z,23.58
2023-01-13T02:31:20.140Z,23.58
2023-01-13T02:33:57.874Z,23.56
2023-01-13T02:36:28.753Z,23.55
2023-01-13T02:38:59.434Z,23.55
2023-01-13T02:41:47.620Z,23.54
2023-01-13T02:44:20.471Z,23.54
2023-01-13T02:46:57.648Z,23.50
2023-01-13T02:49:28.529Z,23.50
2023-01-13T02:51:58.541Z,23.49
2023-01-13T02:54:27.797Z,23.48
2023-01-13T02:56:57.153Z,23.46
2023-01-13T02:59:29.368Z,23.44
2023-01-13T03:02:00.635Z,23.43
2023-01-13T03:04:42.775Z,23.42
2023-01-13T03:07:15.294Z,23.40
2023-01-13T03:09:45.919Z,23.39
2023-01-13T03:12:19.523Z,23.38
2023-01-13T03:14:59.597Z,23.37
2023-01-13T03:17:36.749Z,23.34
2023-01-13T03:20:09.362Z,23.32
2023-01-13T03:22:40.084Z,23.31
2023-01-13T03:25:17.042Z,23.29
2023-01-13T03:27:50.975Z,23.29
2023-01-13T03:30:21.402Z,23.31
2023-01-13T03:32:55.209Z,23.31
2023-01-13T03:35:25.814Z,23.33
2023-01-13T03:37:56.503Z,23.36
2023-01-13T03:40:29.361Z,23.36
2023-01-13T03:43:17.352Z,23.39
2023-01-13T03:45:46.727Z,23.42
2023-01-13T03:48:16.992Z,23.44
2023-01-13T03:50:50.172Z,23.48
2023-01-13T03:53:24.163Z,23.50
2023-01-13T03:55:56.891Z,23.53
2023-01-13T03:58:27.207Z,23.56
2023-01-13T04:01:00.337Z,23.60
2023-01-13T04:03:30.903Z,23.62
2023-01-13T04:06:02.547Z,23.65
2023-01-13T04:08:31.282Z,23.68
2023-01-13T04:11:04.901Z,23.72
2023-01-13T04:13:34.816Z,23.75
2023-01-13T04:16:04.268Z,23.77
2023-01-13T04:18:33.668Z,23.81
2023-01-13T04:21:03.183Z,23.84
2023-01-13T04:23:32.691Z,23.87
2023-01-13T04:26:01.985Z,23.90
2023-01-13T04:28:31.261Z,23.92
2023-01-13T04:31:00.591Z,23.96
2023-01-13T04:33:30.065Z,23.98
2023-01-13T04:35:59.571Z,24.01
2023-01-13T04:38:28.924Z,24.04
2023-01-13T04:40:58.212Z,24.07
2023-01-13T04:43:27.581Z,24.08
2023-01-13T04:45:59.273Z,24.07
2023-01-13T04:48:28.453Z,24.06
2023-01-13T04:50:57.649Z,24.04
2023-01-13T04:53:27.005Z,24.03
2023-01-13T04:55:56.286Z,24.01
2023-01-13T04:58:28.629Z,24.00
2023-01-13T05:00:58.081Z,23.98
2023-01-13T05:03:27.809Z,23.96
2023-01-13T05:05:58.986Z,23.96
2023-01-13T05:08:28.434Z,23.95
2023-01-13T05:10:57.734Z,23.93
2023-01-13T05:13:44.441Z,23.93
2023-01-13T05:16:31.683Z,23.92
2023-01-13T05:19:00.843Z,23.90
2023-01-13T05:21:47.587Z,23.90
2023-01-13T05:24:34.323Z,23.88
2023-01-13T05:27:03.793Z,23.87
2023-01-13T05:29:33.100Z,23.85
2023-01-13T05:32:03.686Z,23.84
2023-01-13T05:34:34.028Z,23.86
2023-01-13T05:37:04.134Z,23.89
2023-01-13T05:39:34.812Z,23.90
2023-01-13T05:42:21.371Z,23.91
2023-01-13T05:44:50.677Z,23.95
2023-01-13T05:47:20.903Z,23.98
2023-01-13T05:49:50.823Z,24.00
2023-01-13T05:52:20.801Z,24.01
2023-01-13T05:54:52.086Z,24.03
2023-01-13T05:57:21.752Z,24.06
2023-01-13T05:59:54.138Z,24.10
2023-01-13T06:02:23.543Z,24.14
2023-01-13T06:04:52.627Z,24.16
2023-01-13T06:07:22.541Z,24.19
2023-01-13T06:09:51.712Z,24.21
2023-01-13T06:12:21.673Z,24.22
2023-01-13T06:14:51.642Z,24.24
2023-01-13T06:17:21.606Z,24.27
2023-01-13T06:19:51.980Z,24.30
2023-01-13T06:22:26.001Z,24.31
2023-01-13T06:24:55.353Z,24.35
2023-01-13T06:27:24.412Z,24.37
2023-01-13T06:29:53.614Z,24.40
2023-01-13T06:32:24.889Z,24.45
2023-01-13T06:34:55.200Z,24.47
2023-01-13T06:37:25.822Z,24.50
2023-01-13T06:40:00.852Z,24.53
2023-01-13T06:42:47.963Z,24.54
2023-01-13T06:45:17.072Z,24.56
2023-01-13T06:47:46.265Z,24.58
2023-01-13T06:50:15.465Z,24.62
2023-01-13T06:52:44.561Z,24.66
2023-01-13T06:55:13.706Z,24.70
2023-01-13T06:57:50.042Z,24.71
2023-01-13T07:00:20.062Z,24.74
2023-01-13T07:02:49.403Z,24.73
2023-01-13T07:05:18.564Z,24.79
2023-01-13T07:07:47.775Z,24.80
2023-01-13T07:10:18.296Z,24.83
2023-01-13T07:13:05.369Z,24.86
2023-01-13T07:15:34.553Z,24.88
2023-01-13T07:18:03.709Z,24.91
2023-01-13T07:20:32.915Z,24.93
2023-01-13T07:23:02.065Z,24.94
2023-01-13T07:25:32.589Z,24.96
2023-01-13T07:28:01.648Z,24.98
2023-01-13T07:30:30.739Z,25.01
2023-01-13T07:33:00.015Z,25.03
2023-01-13T07:35:29.968Z,25.05
2023-01-13T07:37:59.133Z,25.07
2023-01-13T07:40:28.410Z,25.08
2023-01-13T07:43:15.113Z,25.11
2023-01-13T07:45:44.524Z,25.12
2023-01-13T07:48:13.745Z,25.14
2023-01-13T07:50:44.151Z,25.16
2023-01-13T07:53:13.494Z,25.17
2023-01-13T07:55:47.826Z,25.18
2023-01-13T07:58:17.045Z,25.22
2023-01-13T08:00:46.282Z,25.25
2023-01-13T08:03:15.756Z,25.26
2023-01-13T08:05:45.013Z,25.28
2023-01-13T08:08:14.324Z,25.30
2023-01-13T08:10:43.565Z,25.32
2023-01-13T08:13:19.079Z,25.34
2023-01-13T08:15:49.466Z,25.35
2023-01-13T08:18:20.312Z,25.36
2023-01-13T08:20:50.705Z,25.38
2023-01-13T08:23:20.468Z,25.38
2023-01-13T08:25:50.656Z,25.41
2023-01-13T08:28:20.260Z,25.42
2023-01-13T08:30:50.354Z,25.43
2023-01-13T08:33:20.428Z,25.43
2023-01-13T08:35:51.727Z,25.48
2023-01-13T08:38:21.312Z,25.50
2023-01-13T08:40:51.445Z,25.53
2023-01-13T08:43:21.316Z,25.54
2023-01-13T08:46:00.699Z,25.55
2023-01-13T08:48:31.579Z,25.56
2023-01-13T08:51:05.314Z,25.58
2023-01-13T08:53:34.805Z,25.59
2023-01-13T08:56:04.050Z,25.60
2023-01-13T08:58:33.254Z,25.60
2023-01-13T09:01:04.067Z,25.63
2023-01-13T09:03:33.479Z,25.65
2023-01-13T09:06:02.793Z,25.67
2023-01-13T09:08:32.064Z,25.69
2023-01-13T09:11:01.375Z,25.70
2023-01-13T09:13:30.474Z,25.71
2023-01-13T09:15:59.831Z,25.72
2023-01-13T09:18:29.097Z,25.73
2023-01-13T09:20:58.269Z,25.74
2023-01-13T09:23:27.490Z,25.75
2023-01-13T09:25:56.933Z,25.75
2023-01-13T09:28:26.339Z,25.78
2023-01-13T09:30:55.558Z,25.79
2023-01-13T09:33:42.654Z,25.81
2023-01-13T09:36:11.806Z,25.81
2023-01-13T09:38:41.060Z,25.83
2023-01-13T09:41:13.197Z,25.84
2023-01-13T09:43:57.587Z,25.85
2023-01-13T09:46:47.493Z,25.86
2023-01-13T09:49:23.894Z,25.86
2023-01-13T09:51:54.781Z,25.88
2023-01-13T09:54:26.052Z,25.89
2023-01-13T09:56:55.195Z,25.89
2023-01-13T09:59:24.416Z,25.91
2023-01-13T10:01:59.568Z,25.93
2023-01-13T10:04:29.046Z,25.94
2023-01-13T10:06:59.711Z,25.95
2023-01-13T10:09:42.559Z,25.97
2023-01-13T10:12:30.461Z,25.97
2023-01-13T10:14:59.717Z,25.98
2023-01-13T10:17:36.208Z,25.99
2023-01-13T10:20:07.279Z,26.00
2023-01-13T10:22:47.113Z,25.99
2023-01-13T10:25:19.380Z,25.96
2023-01-13T10:27:51.024Z,25.89
2023-01-13T10:30:22.076Z,25.85
2023-01-13T10:33:00.664Z,25.81
2023-01-13T10:35:47.555Z,25.73
2023-01-13T10:38:20.466Z,25.72
2023-01-13T10:40:53.892Z,25.68
2023-01-13T10:43:23.500Z,25.65
2023-01-13T10:45:54.859Z,25.60
2023-01-13T10:48:24.440Z,25.57
2023-01-13T10:50:54.451Z,25.55
2023-01-13T10:53:25.261Z,25.51
2023-01-13T10:56:01.043Z,25.48
2023-01-13T10:58:30.283Z,25.45
2023-01-13T11:01:03.665Z,25.43
2023-01-13T11:03:40.747Z,25.39
2023-01-13T11:06:10.016Z,25.36
2023-01-13T11:08:46.132Z,25.34
2023-01-13T11:11:29.161Z,25.31
2023-01-13T11:14:16.010Z,25.27
2023-01-13T11:16:53.119Z,25.24
2023-01-13T11:19:17.874Z,25.20
2023-01-13T11:21:51.948Z,25.18
2023-01-13T11:24:25.823Z,25.15
2023-01-13T11:26:56.490Z,25.11
2023-01-13T11:29:27.091Z,25.07
2023-01-13T11:31:56.470Z,25.04
2023-01-13T11:34:37.918Z,25.02
2023-01-13T11:37:08.445Z,24.97
2023-01-13T11:39:44.823Z,24.95
2023-01-13T11:42:25.267Z,24.91
2023-01-13T11:44:55.956Z,24.88
2023-01-13T11:47:25.497Z,24.85
2023-01-13T11:49:54.818Z,24.82
2023-01-13T11:52:25.364Z,24.78
2023-01-13T11:55:12.141Z,24.76
2023-01-13T11:57:59.215Z,24.72
2023-01-13T12:00:35.891Z,24.68
2023-01-13T12:03:18.717Z,24.65
2023-01-13T12:05:52.186Z,24.63
2023-01-13T12:08:35.247Z,24.59
2023-01-13T12:11:08.713Z,24.55
2023-01-13T12:13:42.372Z,24.52
2023-01-13T12:16:27.903Z,24.48
2023-01-13T12:19:08.605Z,24.45
2023-01-13T12:21:42.189Z,24.41
2023-01-13T12:24:24.817Z,24.38
2023-01-13T12:26:58.972Z,24.34
2023-01-13T12:29:29.679Z,24.30
2023-01-13T12:31:58.985Z,24.28
2023-01-13T12:34:35.551Z,24.25
2023-01-13T12:37:12.133Z,24.22
2023-01-13T12:39:59.386Z,24.19
2023-01-13T12:43:04.231Z,24.15
2023-01-13T12:45:33.723Z,24.12
2023-01-13T12:48:02.939Z,24.08
2023-01-13T12:50:36.085Z,24.05
2023-01-13T12:53:12.557Z,24.02
2023-01-13T12:55:41.944Z,23.98
2023-01-13T12:58:14.727Z,23.95
2023-01-13T13:00:45.774Z,23.93
2023-01-13T13:03:18.558Z,23.89
2023-01-13T13:05:51.494Z,23.87
2023-01-13T13:08:40.137Z,23.83
2023-01-13T13:11:21.203Z,23.81
2023-01-13T13:13:51.121Z,23.78
2023-01-13T13:16:28.353Z,23.74
2023-01-13T13:19:15.638Z,23.72
2023-01-13T13:22:02.671Z,23.68
2023-01-13T13:24:32.162Z,23.64
2023-01-13T13:27:03.693Z,23.61
2023-01-13T13:29:36.081Z,23.59
2023-01-13T13:32:06.688Z,23.56
2023-01-13T13:34:43.519Z,23.55
2023-01-13T13:37:20.392Z,23.56
2023-01-13T13:40:08.191Z,23.57
2023-01-13T13:42:56.405Z,23.58
2023-01-13T13:45:44.059Z,23.59
2023-01-13T13:48:32.797Z,23.60
2023-01-13T13:51:04.233Z,23.62
2023-01-13T13:53:37.060Z,23.64
2023-01-13T13:56:06.543Z,23.66
2023-01-13T13:58:37.191Z,23.67
2023-01-13T14:01:06.686Z,23.68
2023-01-13T14:03:40.262Z,23.71
2023-01-13T14:06:10.002Z,23.74
2023-01-13T14:08:39.555Z,23.76
2023-01-13T14:11:28.133Z,23.79
2023-01-13T14:14:04.821Z,23.82
2023-01-13T14:16:36.112Z,23.83
2023-01-13T14:19:04.945Z,23.86
2023-01-13T14:21:34.321Z,23.88
2023-01-13T14:24:16.077Z,23.92
2023-01-13T14:26:45.316Z,23.94
2023-01-13T14:29:15.741Z,23.95
2023-01-13T14:31:44.978Z,23.98
2023-01-13T14:34:32.177Z,24.00
2023-01-13T14:36:45.340Z,24.04
2023-01-13T14:39:15.938Z,24.05
2023-01-13T14:41:51.052Z,24.07
2023-01-13T14:44:26.066Z,24.11
2023-01-13T14:46:58.461Z,24.13
2023-01-13T14:49:37.713Z,24.15
2023-01-13T14:52:07.509Z,24.12
2023-01-13T14:54:54.980Z,24.09
2023-01-13T14:57:28.471Z,24.07
2023-01-13T14:59:58.540Z,24.05
2023-01-13T15:02:29.271Z,24.04
2023-01-13T15:05:00.150Z,24.01
2023-01-13T15:07:33.405Z,24.00
2023-01-13T15:10:03.044Z,23.99
2023-01-13T15:12:41.881Z,23.97
2023-01-13T15:15:25.086Z,23.96
2023-01-13T15:17:54.869Z,23.95
2023-01-13T15:20:25.014Z,23.92
2023-01-13T15:22:55.073Z,23.91
2023-01-13T15:25:24.958Z,23.89
2023-01-13T15:27:54.964Z,23.88
2023-01-13T15:30:28.363Z,23.88
2023-01-13T15:32:57.722Z,23.87
2023-01-13T15:35:27.303Z,23.85
2023-01-13T15:37:57.326Z,23.84
2023-01-13T15:40:27.777Z,23.82
2023-01-13T15:43:14.743Z,23.80
2023-01-13T15:46:01.649Z,23.77
2023-01-13T15:48:32.348Z,23.76
2023-01-13T15:51:01.632Z,23.74
2023-01-13T15:53:32.037Z,23.71
2023-01-13T15:56:01.345Z,23.70
2023-01-13T15:58:33.410Z,23.68
2023-01-13T16:01:02.808Z,23.65
2023-01-13T16:03:32.316Z,23.62
2023-01-13T16:06:01.534Z,23.61
2023-01-13T16:08:34.729Z,23.59
2023-01-13T16:11:04.367Z,23.58
2023-01-13T16:13:33.667Z,23.56
2023-01-13T16:16:03.055Z,23.55
2023-01-13T16:18:32.190Z,23.55
2023-01-13T16:21:01.395Z,23.57
2023-01-13T16:23:30.696Z,23.58
2023-01-13T16:25:59.884Z,23.60
2023-01-13T16:28:29.177Z,23.62
2023-01-13T16:30:58.712Z,23.64
2023-01-13T16:33:28.110Z,23.66
2023-01-13T16:36:10.734Z,23.68
2023-01-13T16:38:32.844Z,23.70
2023-01-13T16:41:02.047Z,23.73
2023-01-13T16:43:32.262Z,23.75
2023-01-13T16:46:03.016Z,23.77
2023-01-13T16:48:33.788Z,23.77
2023-01-13T16:51:03.068Z,23.76
2023-01-13T16:53:32.353Z,23.74
2023-01-13T16:56:01.524Z,23.73
2023-01-13T16:58:30.891Z,23.71
2023-01-13T17:01:00.237Z,23.70
2023-01-13T17:03:30.862Z,23.70
2023-01-13T17:06:00.196Z,23.68
2023-01-13T17:08:29.473Z,23.68
2023-01-13T17:10:58.803Z,23.66
2023-01-13T17:13:28.188Z,23.66
2023-01-13T17:15:57.412Z,23.65
2023-01-13T17:18:26.633Z,23.65
2023-01-13T17:20:55.934Z,23.64
2023-01-13T17:23:25.218Z,23.64
2023-01-13T17:25:55.596Z,23.63
2023-01-13T17:28:25.854Z,23.60
2023-01-13T17:30:55.269Z,23.59
2023-01-13T17:33:25.414Z,23.58
2023-01-13T17:35:55.423Z,23.56
2023-01-13T17:38:25.220Z,23.55
2023-01-13T17:40:55.213Z,23.54
2023-01-13T17:43:26.288Z,23.54
2023-01-13T17:45:55.509Z,23.52
2023-01-13T17:48:24.716Z,23.51
2023-01-13T17:50:54.629Z,23.50
2023-01-13T17:53:24.594Z,23.47
2023-01-13T17:55:54.660Z,23.45
2023-01-13T17:58:24.571Z,23.46
2023-01-13T18:00:54.481Z,23.44
2023-01-13T18:03:24.534Z,23.42
2023-01-13T18:05:53.921Z,23.41
2023-01-13T18:08:24.597Z,23.40
2023-01-13T18:10:55.630Z,23.37
2023-01-13T18:13:25.527Z,23.36
2023-01-13T18:16:09.061Z,23.36
2023-01-13T18:18:38.291Z,23.40
2023-01-13T18:21:17.853Z,23.43
2023-01-13T18:24:04.586Z,23.44
2023-01-13T18:26:51.274Z,23.45
2023-01-13T18:29:20.779Z,23.50
2023-01-13T18:31:50.064Z,23.53
2023-01-13T18:34:19.300Z,23.52
2023-01-13T18:36:48.643Z,23.50
2023-01-13T18:39:17.904Z,23.50
2023-01-13T18:42:05.606Z,23.48
2023-01-13T18:44:34.978Z,23.48
2023-01-13T18:47:04.174Z,23.47
2023-01-13T18:49:33.356Z,23.46
2023-01-13T18:52:02.692Z,23.45
2023-01-13T18:54:31.952Z,23.46
2023-01-13T18:57:02.593Z,23.44
2023-01-13T18:59:33.576Z,23.44
2023-01-13T19:02:03.283Z,23.44
2023-01-13T19:04:33.450Z,23.43
2023-01-13T19:07:02.737Z,23.42
2023-01-13T19:09:31.938Z,23.42
2023-01-13T19:12:02.102Z,23.41
2023-01-13T19:14:38.482Z,23.41
2023-01-13T19:17:09.712Z,23.41
2023-01-13T19:19:42.296Z,23.40
2023-01-13T19:22:12.191Z,23.39
2023-01-13T19:24:44.573Z,23.39
2023-01-13T19:27:16.680Z,23.38
2023-01-13T19:29:50.760Z,23.39
2023-01-13T19:32:19.658Z,23.37
2023-01-13T19:34:50.274Z,23.36
2023-01-13T19:37:21.107Z,23.35
2023-01-13T19:39:50.390Z,23.36
2023-01-13T19:42:37.026Z,23.34
2023-01-13T19:45:24.271Z,23.34
2023-01-13T19:47:53.795Z,23.32
2023-01-13T19:50:24.105Z,23.29
2023-01-13T19:52:54.091Z,23.30
2023-01-13T19:55:23.908Z,23.29
2023-01-13T19:57:53.956Z,23.28
2023-01-13T20:00:24.742Z,23.27
2023-01-13T20:02:56.167Z,23.29
2023-01-13T20:05:27.076Z,23.27
2023-01-13T20:07:57.792Z,23.28
2023-01-13T20:10:27.002Z,23.27
2023-01-13T20:12:56.262Z,23.25
2023-01-13T20:15:25.837Z,23.25
2023-01-13T20:17:55.684Z,23.23
2023-01-13T20:20:26.984Z,23.25
2023-01-13T20:22:57.686Z,23.22
2023-01-13T20:25:28.901Z,23.24
2023-01-13T20:27:58.293Z,23.23
2023-01-13T20:30:27.589Z,23.22
2023-01-13T20:32:56.786Z,23.21
2023-01-13T20:35:27.405Z,23.20
2023-01-13T20:37:56.771Z,23.20
2023-01-13T20:40:25.935Z,23.20
2023-01-13T20:42:55.755Z,23.20
2023-01-13T20:45:27.083Z,23.18
2023-01-13T20:47:57.050Z,23.18
2023-01-13T20:50:26.164Z,23.18
2023-01-13T20:52:55.875Z,23.18
2023-01-13T20:55:25.797Z,23.17
2023-01-13T20:57:55.809Z,23.16
2023-01-13T21:00:25.831Z,23.18
2023-01-13T21:02:55.749Z,23.16
2023-01-13T21:05:25.731Z,23.16
2023-01-13T21:07:57.237Z,23.17
2023-01-13T21:10:26.423Z,23.16
2023-01-13T21:13:13.720Z,23.16
2023-01-13T21:15:43.091Z,23.17
2023-01-13T21:18:29.867Z,23.17
2023-01-13T21:21:00.493Z,23.16
2023-01-13T21:23:29.754Z,23.17
2023-01-13T21:25:58.917Z,23.17
2023-01-13T21:28:28.203Z,23.17
2023-01-13T21:30:57.547Z,23.17
2023-01-13T21:33:26.879Z,23.17
2023-01-13T21:35:57.637Z,23.16
2023-01-13T21:38:29.029Z,23.17
2023-01-13T21:41:00.324Z,23.18
2023-01-13T21:43:47.214Z,23.18
2023-01-13T21:46:34.221Z,23.17
2023-01-13T21:49:06.356Z,23.18
2023-01-13T21:51:35.891Z,23.18
2023-01-13T21:54:05.153Z,23.19
2023-01-13T21:56:34.636Z,23.19
2023-01-13T21:59:03.865Z,23.19
2023-01-13T22:01:33.403Z,23.19
2023-01-13T22:04:14.761Z,23.20
2023-01-13T22:06:44.045Z,23.21
2023-01-13T22:09:13.772Z,23.20
2023-01-13T22:11:42.849Z,23.20
2023-01-13T22:14:12.040Z,23.21
2023-01-13T22:16:42.978Z,23.21
2023-01-13T22:19:12.324Z,23.22
2023-01-13T22:21:41.880Z,23.23
2023-01-13T22:24:11.211Z,23.22
2023-01-13T22:26:40.403Z,23.23
2023-01-13T22:29:12.326Z,23.23
2023-01-13T22:31:41.710Z,23.25
2023-01-13T22:34:12.329Z,23.25
2023-01-13T22:36:41.616Z,23.26
2023-01-13T22:39:11.205Z,23.26
2023-01-13T22:41:40.467Z,23.26
2023-01-13T22:44:09.641Z,23.27
2023-01-13T22:46:38.865Z,23.27
2023-01-13T22:49:08.175Z,23.27
2023-01-13T22:51:37.339Z,23.29
2023-01-13T22:54:06.760Z,23.28
2023-01-13T22:56:35.992Z,23.29
2023-01-13T22:59:05.460Z,23.29
2023-01-13T23:01:35.349Z,23.29
2023-01-13T23:04:04.665Z,23.30
2023-01-13T23:06:34.320Z,23.30
2023-01-13T23:09:03.629Z,23.31
2023-01-13T23:11:32.889Z,23.30
2023-01-13T23:14:03.450Z,23.31
2023-01-13T23:16:32.828Z,23.30
2023-01-13T23:19:02.048Z,23.29
2023-01-13T23:21:31.846Z,23.31
2023-01-13T23:24:01.211Z,23.30
2023-01-13T23:29:18.071Z,23.30
2023-01-13T23:31:47.225Z,23.29
2023-01-13T23:34:16.494Z,23.30
2023-01-13T23:36:45.747Z,23.29
2023-01-13T23:39:15.350Z,23.28
2023-01-13T23:41:48.994Z,23.28
2023-01-13T23:44:17.586Z,23.28
2023-01-13T23:46:46.844Z,23.28
2023-01-13T23:49:16.159Z,23.28
2023-01-13T23:51:45.427Z,23.27
2023-01-13T23:54:14.705Z,23.28
2023-01-13T23:56:43.865Z,23.27
2023-01-13T23:59:13.141Z,23.25
